sensor_id;sensor_type;location;lat;lon;timestamp;temperature;humidity
59855;DHT22;45732;52.850;6.896;2023-04-25T00:02:18;7.30;99.90
59855;DHT22;45732;52.850;6.896;2023-04-25T00:04:44;7.30;99.90
59855;DHT22;45732;52.850;6.896;2023-04-25T00:07:10;7.20;99.90
59855;DHT22;45732;52.850;6.896;2023-04-25T00:09:37;7.20;99.90
59855;DHT22;45732;52.850;6.896;2023-04-25T00:12:02;7.30;99.90
59855;DHT22;45732;52.850;6.896;2023-04-25T00:14:29;7.30;99.90
59855;DHT22;45732;52.850;6.896;2023-04-25T00:16:55;7.30;99.90
59855;DHT22;45732;52.850;6.896;2023-04-25T00:19:21;7.30;99.90
59855;DHT22;45732;52.850;6.896;2023-04-25T00:21:47;7.30;99.90
59855;DHT22;45732;52.850;6.896;2023-04-25T00:24:13;7.30;99.90
59855;DHT22;45732;52.850;6.896;2023-04-25T00:26:38;7.20;99.90
59855;DHT22;45732;52.850;6.896;2023-04-25T00:29:04;7.20;99.90
59855;DHT22;45732;52.850;6.896;2023-04-25T00:31:30;7.20;99.90
59855;DHT22;45732;52.850;6.896;2023-04-25T00:33:56;7.10;99.90
59855;DHT22;45732;52.850;6.896;2023-04-25T00:36:21;7.10;99.90
59855;DHT22;45732;52.850;6.896;2023-04-25T00:38:47;7.00;99.90
59855;DHT22;45732;52.850;6.896;2023-04-25T00:41:13;7.00;99.90
59855;DHT22;45732;52.850;6.896;2023-04-25T00:43:40;7.00;99.90
59855;DHT22;45732;52.850;6.896;2023-04-25T00:46:06;7.00;99.90
59855;DHT22;45732;52.850;6.896;2023-04-25T00:48:31;6.90;99.90
59855;DHT22;45732;52.850;6.896;2023-04-25T00:50:58;6.90;99.90
59855;DHT22;45732;52.850;6.896;2023-04-25T00:53:27;6.90;99.90
59855;DHT22;45732;52.850;6.896;2023-04-25T00:55:53;6.80;99.90
59855;DHT22;45732;52.850;6.896;2023-04-25T00:58:20;6.80;99.90
59855;DHT22;45732;52.850;6.896;2023-04-25T01:00:47;6.70;99.90
59855;DHT22;45732;52.850;6.896;2023-04-25T01:03:15;6.70;99.90
59855;DHT22;45732;52.850;6.896;2023-04-25T01:05:46;6.70;99.90
59855;DHT22;45732;52.850;6.896;2023-04-25T01:08:13;6.70;99.90
59855;DHT22;45732;52.850;6.896;2023-04-25T01:10:38;6.70;99.90
59855;DHT22;45732;52.850;6.896;2023-04-25T01:13:04;6.70;99.90
59855;DHT22;45732;52.850;6.896;2023-04-25T01:15:30;6.70;99.90
59855;DHT22;45732;52.850;6.896;2023-04-25T01:17:57;6.60;99.90
59855;DHT22;45732;52.850;6.896;2023-04-25T01:20:23;6.60;99.90
59855;DHT22;45732;52.850;6.896;2023-04-25T01:22:54;6.60;99.90
59855;DHT22;45732;52.850;6.896;2023-04-25T01:25:21;6.60;99.90
59855;DHT22;45732;52.850;6.896;2023-04-25T01:27:47;6.60;99.90
59855;DHT22;45732;52.850;6.896;2023-04-25T01:30:13;6.50;99.90
59855;DHT22;45732;52.850;6.896;2023-04-25T01:32:40;6.50;99.90
59855;DHT22;45732;52.850;6.896;2023-04-25T01:35:11;6.50;99.90
59855;DHT22;45732;52.850;6.896;2023-04-25T01:37:41;6.50;99.90
59855;DHT22;45732;52.850;6.896;2023-04-25T01:40:08;6.50;99.90
59855;DHT22;45732;52.850;6.896;2023-04-25T01:42:37;6.40;99.90
59855;DHT22;45732;52.850;6.896;2023-04-25T01:45:04;6.40;99.90
59855;DHT22;45732;52.850;6.896;2023-04-25T01:47:29;6.40;99.90
59855;DHT22;45732;52.850;6.896;2023-04-25T01:49:55;6.40;99.90
59855;DHT22;45732;52.850;6.896;2023-04-25T01:52:21;6.30;99.90
59855;DHT22;45732;52.850;6.896;2023-04-25T01:54:47;6.30;99.90
59855;DHT22;45732;52.850;6.896;2023-04-25T01:57:14;6.30;99.90
59855;DHT22;45732;52.850;6.896;2023-04-25T01:59:39;6.30;99.90
59855;DHT22;45732;52.850;6.896;2023-04-25T02:02:06;6.30;99.90
59855;DHT22;45732;52.850;6.896;2023-04-25T02:04:32;6.20;99.90
59855;DHT22;45732;52.850;6.896;2023-04-25T02:06:58;6.30;99.90
59855;DHT22;45732;52.850;6.896;2023-04-25T02:09:24;6.30;99.90
59855;DHT22;45732;52.850;6.896;2023-04-25T02:11:50;6.30;99.90
59855;DHT22;45732;52.850;6.896;2023-04-25T02:14:15;6.20;99.90
59855;DHT22;45732;52.850;6.896;2023-04-25T02:16:41;6.30;99.90
59855;DHT22;45732;52.850;6.896;2023-04-25T02:19:09;6.30;99.90
59855;DHT22;45732;52.850;6.896;2023-04-25T02:21:36;6.30;99.90
59855;DHT22;45732;52.850;6.896;2023-04-25T02:24:02;6.30;99.90
59855;DHT22;45732;52.850;6.896;2023-04-25T02:26:28;6.30;99.90
59855;DHT22;45732;52.850;6.896;2023-04-25T02:28:53;6.30;99.90
59855;DHT22;45732;52.850;6.896;2023-04-25T02:31:20;6.30;99.90
59855;DHT22;45732;52.850;6.896;2023-04-25T02:33:46;6.30;99.90
59855;DHT22;45732;52.850;6.896;2023-04-25T02:36:12;6.30;99.90
59855;DHT22;45732;52.850;6.896;2023-04-25T02:38:37;6.30;99.90
59855;DHT22;45732;52.850;6.896;2023-04-25T02:41:03;6.30;99.90
59855;DHT22;45732;52.850;6.896;2023-04-25T02:43:29;6.20;99.90
59855;DHT22;45732;52.850;6.896;2023-04-25T02:45:55;6.20;99.90
59855;DHT22;45732;52.850;6.896;2023-04-25T02:48:20;6.20;99.90
59855;DHT22;45732;52.850;6.896;2023-04-25T02:50:46;6.20;99.90
59855;DHT22;45732;52.850;6.896;2023-04-25T02:53:12;6.20;99.90
59855;DHT22;45732;52.850;6.896;2023-04-25T02:55:38;6.30;99.90
59855;DHT22;45732;52.850;6.896;2023-04-25T02:58:04;6.20;99.90
59855;DHT22;45732;52.850;6.896;2023-04-25T03:00:30;6.30;99.90
59855;DHT22;45732;52.850;6.896;2023-04-25T03:02:56;6.30;99.90
59855;DHT22;45732;52.850;6.896;2023-04-25T03:05:22;6.30;99.90
59855;DHT22;45732;52.850;6.896;2023-04-25T03:07:47;6.30;99.90
59855;DHT22;45732;52.850;6.896;2023-04-25T03:10:13;6.30;99.90
59855;DHT22;45732;52.850;6.896;2023-04-25T03:12:39;6.20;99.90
59855;DHT22;45732;52.850;6.896;2023-04-25T03:15:05;6.20;99.90
59855;DHT22;45732;52.850;6.896;2023-04-25T03:17:31;6.30;99.90
59855;DHT22;45732;52.850;6.896;2023-04-25T03:19:57;6.30;99.90
59855;DHT22;45732;52.850;6.896;2023-04-25T03:22:23;6.30;99.90
59855;DHT22;45732;52.850;6.896;2023-04-25T03:24:50;6.30;99.90
59855;DHT22;45732;52.850;6.896;2023-04-25T03:27:16;6.30;99.90
59855;DHT22;45732;52.850;6.896;2023-04-25T03:29:41;6.30;99.90
59855;DHT22;45732;52.850;6.896;2023-04-25T03:32:07;6.30;99.90
59855;DHT22;45732;52.850;6.896;2023-04-25T03:34:33;6.30;99.90
59855;DHT22;45732;52.850;6.896;2023-04-25T03:36:59;6.30;99.90
59855;DHT22;45732;52.850;6.896;2023-04-25T03:39:25;6.30;99.90
59855;DHT22;45732;52.850;6.896;2023-04-25T03:41:51;6.30;99.90
59855;DHT22;45732;52.850;6.896;2023-04-25T03:44:17;6.30;99.90
59855;DHT22;45732;52.850;6.896;2023-04-25T03:46:42;6.30;99.90
59855;DHT22;45732;52.850;6.896;2023-04-25T03:49:08;6.30;99.90
59855;DHT22;45732;52.850;6.896;2023-04-25T03:51:34;6.20;99.90
59855;DHT22;45732;52.850;6.896;2023-04-25T03:54:00;6.20;99.90
59855;DHT22;45732;52.850;6.896;2023-04-25T03:56:25;6.20;99.90
59855;DHT22;45732;52.850;6.896;2023-04-25T03:58:51;6.20;99.90
59855;DHT22;45732;52.850;6.896;2023-04-25T04:01:17;6.30;99.90
59855;DHT22;45732;52.850;6.896;2023-04-25T04:03:42;6.20;99.90
59855;DHT22;45732;52.850;6.896;2023-04-25T04:06:09;6.20;99.90
59855;DHT22;45732;52.850;6.896;2023-04-25T04:08:34;6.30;99.90
59855;DHT22;45732;52.850;6.896;2023-04-25T04:11:00;6.30;99.90
59855;DHT22;45732;52.850;6.896;2023-04-25T04:13:27;6.20;99.90
59855;DHT22;45732;52.850;6.896;2023-04-25T04:15:53;6.30;99.90
59855;DHT22;45732;52.850;6.896;2023-04-25T04:18:19;6.20;99.90
59855;DHT22;45732;52.850;6.896;2023-04-25T04:20:45;6.20;99.90
59855;DHT22;45732;52.850;6.896;2023-04-25T04:23:11;6.20;99.90
59855;DHT22;45732;52.850;6.896;2023-04-25T04:25:37;6.30;99.90
59855;DHT22;45732;52.850;6.896;2023-04-25T04:28:02;6.30;99.90
59855;DHT22;45732;52.850;6.896;2023-04-25T04:30:28;6.30;99.90
59855;DHT22;45732;52.850;6.896;2023-04-25T04:32:57;6.20;99.90
59855;DHT22;45732;52.850;6.896;2023-04-25T04:35:24;6.30;99.90
59855;DHT22;45732;52.850;6.896;2023-04-25T04:37:50;6.30;99.90
59855;DHT22;45732;52.850;6.896;2023-04-25T04:40:16;6.30;99.90
59855;DHT22;45732;52.850;6.896;2023-04-25T04:42:43;6.20;99.90
59855;DHT22;45732;52.850;6.896;2023-04-25T04:45:09;6.30;99.90
59855;DHT22;45732;52.850;6.896;2023-04-25T04:47:35;6.30;99.90
59855;DHT22;45732;52.850;6.896;2023-04-25T04:50:03;6.30;99.90
59855;DHT22;45732;52.850;6.896;2023-04-25T04:52:30;6.20;99.90
59855;DHT22;45732;52.850;6.896;2023-04-25T04:54:55;6.20;99.90
59855;DHT22;45732;52.850;6.896;2023-04-25T04:57:22;6.10;99.90
59855;DHT22;45732;52.850;6.896;2023-04-25T04:59:47;6.10;99.90
59855;DHT22;45732;52.850;6.896;2023-04-25T05:02:13;6.00;99.90
59855;DHT22;45732;52.850;6.896;2023-04-25T05:04:39;6.00;99.90
59855;DHT22;45732;52.850;6.896;2023-04-25T05:07:04;6.00;99.90
59855;DHT22;45732;52.850;6.896;2023-04-25T05:09:30;6.00;99.90
59855;DHT22;45732;52.850;6.896;2023-04-25T05:11:56;6.00;99.90
59855;DHT22;45732;52.850;6.896;2023-04-25T05:14:22;6.10;99.90
59855;DHT22;45732;52.850;6.896;2023-04-25T05:16:48;6.10;99.90
59855;DHT22;45732;52.850;6.896;2023-04-25T05:19:14;6.10;99.90
59855;DHT22;45732;52.850;6.896;2023-04-25T05:21:40;6.10;99.90
59855;DHT22;45732;52.850;6.896;2023-04-25T05:24:05;6.10;99.90
59855;DHT22;45732;52.850;6.896;2023-04-25T05:26:31;6.10;99.90
59855;DHT22;45732;52.850;6.896;2023-04-25T05:28:57;6.10;99.90
59855;DHT22;45732;52.850;6.896;2023-04-25T05:31:23;6.10;99.90
59855;DHT22;45732;52.850;6.896;2023-04-25T05:33:49;6.10;99.90
59855;DHT22;45732;52.850;6.896;2023-04-25T05:36:14;6.20;99.90
59855;DHT22;45732;52.850;6.896;2023-04-25T05:38:40;6.20;99.90
59855;DHT22;45732;52.850;6.896;2023-04-25T05:41:06;6.20;99.90
59855;DHT22;45732;52.850;6.896;2023-04-25T05:43:32;6.20;99.90
59855;DHT22;45732;52.850;6.896;2023-04-25T05:45:58;6.30;99.90
59855;DHT22;45732;52.850;6.896;2023-04-25T05:48:24;6.20;99.90
59855;DHT22;45732;52.850;6.896;2023-04-25T05:50:50;6.30;99.90
59855;DHT22;45732;52.850;6.896;2023-04-25T05:53:17;6.30;99.90
59855;DHT22;45732;52.850;6.896;2023-04-25T05:55:43;6.30;99.90
59855;DHT22;45732;52.850;6.896;2023-04-25T05:58:08;6.40;99.90
59855;DHT22;45732;52.850;6.896;2023-04-25T06:00:34;6.40;99.90
59855;DHT22;45732;52.850;6.896;2023-04-25T06:03:00;6.40;99.90
59855;DHT22;45732;52.850;6.896;2023-04-25T06:05:26;6.40;99.90
59855;DHT22;45732;52.850;6.896;2023-04-25T06:07:52;6.40;99.90
59855;DHT22;45732;52.850;6.896;2023-04-25T06:10:18;6.40;99.90
59855;DHT22;45732;52.850;6.896;2023-04-25T06:12:44;6.40;99.90
59855;DHT22;45732;52.850;6.896;2023-04-25T06:15:10;6.40;99.90
59855;DHT22;45732;52.850;6.896;2023-04-25T06:17:35;6.40;99.90
59855;DHT22;45732;52.850;6.896;2023-04-25T06:20:02;6.40;99.90
59855;DHT22;45732;52.850;6.896;2023-04-25T06:22:28;6.50;99.90
59855;DHT22;45732;52.850;6.896;2023-04-25T06:24:54;6.50;99.90
59855;DHT22;45732;52.850;6.896;2023-04-25T06:27:22;6.50;99.90
59855;DHT22;45732;52.850;6.896;2023-04-25T06:29:48;6.60;99.90
59855;DHT22;45732;52.850;6.896;2023-04-25T06:32:14;6.70;99.90
59855;DHT22;45732;52.850;6.896;2023-04-25T06:34:39;6.80;99.90
59855;DHT22;45732;52.850;6.896;2023-04-25T06:37:05;6.90;99.90
59855;DHT22;45732;52.850;6.896;2023-04-25T06:39:31;6.90;99.90
59855;DHT22;45732;52.850;6.896;2023-04-25T06:41:56;7.00;99.90
59855;DHT22;45732;52.850;6.896;2023-04-25T06:44:22;7.00;99.90
59855;DHT22;45732;52.850;6.896;2023-04-25T06:46:49;7.10;99.90
59855;DHT22;45732;52.850;6.896;2023-04-25T06:49:15;7.20;99.90
59855;DHT22;45732;52.850;6.896;2023-04-25T06:51:41;7.20;99.90
59855;DHT22;45732;52.850;6.896;2023-04-25T06:54:06;7.20;99.90
59855;DHT22;45732;52.850;6.896;2023-04-25T06:56:32;7.20;99.90
59855;DHT22;45732;52.850;6.896;2023-04-25T06:58:58;7.30;99.90
59855;DHT22;45732;52.850;6.896;2023-04-25T07:01:25;7.40;99.90
59855;DHT22;45732;52.850;6.896;2023-04-25T07:03:51;7.40;99.90
59855;DHT22;45732;52.850;6.896;2023-04-25T07:06:17;7.50;99.90
59855;DHT22;45732;52.850;6.896;2023-04-25T07:08:43;7.50;99.90
59855;DHT22;45732;52.850;6.896;2023-04-25T07:11:08;7.50;99.90
59855;DHT22;45732;52.850;6.896;2023-04-25T07:13:34;7.60;99.90
59855;DHT22;45732;52.850;6.896;2023-04-25T07:16:00;7.60;99.90
59855;DHT22;45732;52.850;6.896;2023-04-25T07:18:26;7.80;99.90
59855;DHT22;45732;52.850;6.896;2023-04-25T07:20:51;7.80;99.90
59855;DHT22;45732;52.850;6.896;2023-04-25T07:23:17;7.90;99.90
59855;DHT22;45732;52.850;6.896;2023-04-25T07:25:43;8.00;99.90
59855;DHT22;45732;52.850;6.896;2023-04-25T07:28:08;8.00;99.90
59855;DHT22;45732;52.850;6.896;2023-04-25T07:30:34;7.90;99.90
59855;DHT22;45732;52.850;6.896;2023-04-25T07:33:00;7.80;99.90
59855;DHT22;45732;52.850;6.896;2023-04-25T07:35:26;7.70;99.90
59855;DHT22;45732;52.850;6.896;2023-04-25T07:37:51;7.60;99.90
59855;DHT22;45732;52.850;6.896;2023-04-25T07:40:17;7.60;99.90
59855;DHT22;45732;52.850;6.896;2023-04-25T07:42:43;7.60;99.90
59855;DHT22;45732;52.850;6.896;2023-04-25T07:45:09;7.50;99.90
59855;DHT22;45732;52.850;6.896;2023-04-25T07:47:35;7.60;99.90
59855;DHT22;45732;52.850;6.896;2023-04-25T07:50:02;7.60;99.90
59855;DHT22;45732;52.850;6.896;2023-04-25T07:52:28;7.70;99.90
59855;DHT22;45732;52.850;6.896;2023-04-25T07:54:54;7.70;99.90
59855;DHT22;45732;52.850;6.896;2023-04-25T07:57:20;7.80;99.90
59855;DHT22;45732;52.850;6.896;2023-04-25T07:59:46;7.90;99.90
59855;DHT22;45732;52.850;6.896;2023-04-25T08:02:11;8.00;99.90
59855;DHT22;45732;52.850;6.896;2023-04-25T08:04:37;8.10;99.90
59855;DHT22;45732;52.850;6.896;2023-04-25T08:07:03;8.10;99.90
59855;DHT22;45732;52.850;6.896;2023-04-25T08:09:28;8.10;99.90
59855;DHT22;45732;52.850;6.896;2023-04-25T08:11:54;7.90;99.90
59855;DHT22;45732;52.850;6.896;2023-04-25T08:14:20;7.80;99.90
59855;DHT22;45732;52.850;6.896;2023-04-25T08:16:46;7.60;99.90
59855;DHT22;45732;52.850;6.896;2023-04-25T08:19:11;7.60;99.90
59855;DHT22;45732;52.850;6.896;2023-04-25T08:21:37;7.60;99.90
59855;DHT22;45732;52.850;6.896;2023-04-25T08:24:03;7.60;99.90
59855;DHT22;45732;52.850;6.896;2023-04-25T08:26:29;7.80;99.90
59855;DHT22;45732;52.850;6.896;2023-04-25T08:28:55;8.00;99.90
59855;DHT22;45732;52.850;6.896;2023-04-25T08:31:21;8.30;99.90
59855;DHT22;45732;52.850;6.896;2023-04-25T08:33:46;8.40;99.90
59855;DHT22;45732;52.850;6.896;2023-04-25T08:36:12;8.60;99.90
59855;DHT22;45732;52.850;6.896;2023-04-25T08:38:38;8.50;99.90
59855;DHT22;45732;52.850;6.896;2023-04-25T08:41:05;8.40;99.90
59855;DHT22;45732;52.850;6.896;2023-04-25T08:43:32;8.30;99.90
59855;DHT22;45732;52.850;6.896;2023-04-25T08:46:01;8.10;99.90
59855;DHT22;45732;52.850;6.896;2023-04-25T08:48:32;7.80;99.90
59855;DHT22;45732;52.850;6.896;2023-04-25T08:51:02;7.50;99.90
59855;DHT22;45732;52.850;6.896;2023-04-25T08:53:30;7.30;99.90
59855;DHT22;45732;52.850;6.896;2023-04-25T08:55:58;7.10;99.90
59855;DHT22;45732;52.850;6.896;2023-04-25T08:58:24;7.00;99.90
59855;DHT22;45732;52.850;6.896;2023-04-25T09:00:51;7.10;99.90
59855;DHT22;45732;52.850;6.896;2023-04-25T09:03:17;7.20;99.90
59855;DHT22;45732;52.850;6.896;2023-04-25T09:05:43;7.30;99.90
59855;DHT22;45732;52.850;6.896;2023-04-25T09:08:09;7.40;99.90
59855;DHT22;45732;52.850;6.896;2023-04-25T09:10:35;7.60;99.90
59855;DHT22;45732;52.850;6.896;2023-04-25T09:15:32;7.90;99.90
59855;DHT22;45732;52.850;6.896;2023-04-25T09:17:58;8.10;99.90
59855;DHT22;45732;52.850;6.896;2023-04-25T09:20:25;8.40;99.90
59855;DHT22;45732;52.850;6.896;2023-04-25T09:23:05;8.40;99.90
59855;DHT22;45732;52.850;6.896;2023-04-25T09:25:36;8.50;99.90
59855;DHT22;45732;52.850;6.896;2023-04-25T09:28:06;8.40;99.90
59855;DHT22;45732;52.850;6.896;2023-04-25T09:30:35;8.30;99.90
59855;DHT22;45732;52.850;6.896;2023-04-25T09:33:09;8.10;99.90
59855;DHT22;45732;52.850;6.896;2023-04-25T09:35:40;8.00;99.90
59855;DHT22;45732;52.850;6.896;2023-04-25T09:38:11;8.00;99.90
59855;DHT22;45732;52.850;6.896;2023-04-25T09:40:45;7.90;99.90
59855;DHT22;45732;52.850;6.896;2023-04-25T09:43:21;8.00;99.90
59855;DHT22;45732;52.850;6.896;2023-04-25T09:45:47;8.10;99.90
59855;DHT22;45732;52.850;6.896;2023-04-25T09:48:23;8.20;99.90
59855;DHT22;45732;52.850;6.896;2023-04-25T09:51:10;8.20;99.90
59855;DHT22;45732;52.850;6.896;2023-04-25T09:53:39;8.20;99.90
59855;DHT22;45732;52.850;6.896;2023-04-25T09:56:07;8.00;99.90
59855;DHT22;45732;52.850;6.896;2023-04-25T09:58:35;8.00;99.90
59855;DHT22;45732;52.850;6.896;2023-04-25T10:01:06;8.00;99.90
59855;DHT22;45732;52.850;6.896;2023-04-25T10:03:34;8.00;99.90
59855;DHT22;45732;52.850;6.896;2023-04-25T10:06:07;8.10;99.90
59855;DHT22;45732;52.850;6.896;2023-04-25T10:08:35;8.10;99.90
59855;DHT22;45732;52.850;6.896;2023-04-25T10:11:06;8.20;99.90
59855;DHT22;45732;52.850;6.896;2023-04-25T10:13:34;8.30;99.90
59855;DHT22;45732;52.850;6.896;2023-04-25T10:16:02;8.40;99.90
59855;DHT22;45732;52.850;6.896;2023-04-25T10:18:29;8.50;99.90
59855;DHT22;45732;52.850;6.896;2023-04-25T10:21:00;8.70;99.90
59855;DHT22;45732;52.850;6.896;2023-04-25T10:23:26;8.70;99.90
59855;DHT22;45732;52.850;6.896;2023-04-25T10:25:53;8.90;99.90
59855;DHT22;45732;52.850;6.896;2023-04-25T10:28:20;9.00;99.90
59855;DHT22;45732;52.850;6.896;2023-04-25T10:31:07;9.20;99.90
59855;DHT22;45732;52.850;6.896;2023-04-25T10:33:37;9.20;99.90
59855;DHT22;45732;52.850;6.896;2023-04-25T10:36:14;8.80;99.90
59855;DHT22;45732;52.850;6.896;2023-04-25T10:38:42;8.20;99.90
59855;DHT22;45732;52.850;6.896;2023-04-25T10:41:10;7.90;99.90
59855;DHT22;45732;52.850;6.896;2023-04-25T10:46:25;7.40;99.90
59855;DHT22;45732;52.850;6.896;2023-04-25T10:48:55;7.30;99.90
59855;DHT22;45732;52.850;6.896;2023-04-25T10:51:28;7.40;99.90
59855;DHT22;45732;52.850;6.896;2023-04-25T10:54:06;7.70;99.90
59855;DHT22;45732;52.850;6.896;2023-04-25T10:56:40;7.90;99.90
59855;DHT22;45732;52.850;6.896;2023-04-25T10:59:15;8.00;99.90
59855;DHT22;45732;52.850;6.896;2023-04-25T11:01:46;8.20;99.90
59855;DHT22;45732;52.850;6.896;2023-04-25T11:09:28;8.60;99.90
59855;DHT22;45732;52.850;6.896;2023-04-25T11:11:57;8.90;99.90
59855;DHT22;45732;52.850;6.896;2023-04-25T11:14:24;9.10;99.90
59855;DHT22;45732;52.850;6.896;2023-04-25T11:16:57;9.30;99.90
59855;DHT22;45732;52.850;6.896;2023-04-25T11:19:24;9.40;99.90
59855;DHT22;45732;52.850;6.896;2023-04-25T11:21:50;9.50;99.90
59855;DHT22;45732;52.850;6.896;2023-04-25T11:24:16;9.30;99.90
59855;DHT22;45732;52.850;6.896;2023-04-25T11:26:51;9.20;99.90
59855;DHT22;45732;52.850;6.896;2023-04-25T11:29:17;9.00;99.90
59855;DHT22;45732;52.850;6.896;2023-04-25T11:31:44;8.80;99.90
59855;DHT22;45732;52.850;6.896;2023-04-25T11:34:11;8.80;99.90
59855;DHT22;45732;52.850;6.896;2023-04-25T11:36:38;8.90;99.90
59855;DHT22;45732;52.850;6.896;2023-04-25T11:39:04;9.00;99.90
59855;DHT22;45732;52.850;6.896;2023-04-25T11:41:31;9.00;99.90
59855;DHT22;45732;52.850;6.896;2023-04-25T11:43:57;9.00;99.90
59855;DHT22;45732;52.850;6.896;2023-04-25T11:46:22;8.90;99.90
59855;DHT22;45732;52.850;6.896;2023-04-25T11:48:48;8.80;99.90
59855;DHT22;45732;52.850;6.896;2023-04-25T11:51:15;8.70;99.90
59855;DHT22;45732;52.850;6.896;2023-04-25T11:53:44;8.80;99.90
59855;DHT22;45732;52.850;6.896;2023-04-25T11:56:10;9.00;99.90
59855;DHT22;45732;52.850;6.896;2023-04-25T12:01:30;9.30;99.90
59855;DHT22;45732;52.850;6.896;2023-04-25T12:03:57;9.30;99.90
59855;DHT22;45732;52.850;6.896;2023-04-25T12:06:28;9.40;99.90
59855;DHT22;45732;52.850;6.896;2023-04-25T12:09:04;9.20;99.90
59855;DHT22;45732;52.850;6.896;2023-04-25T12:11:32;9.10;99.90
59855;DHT22;45732;52.850;6.896;2023-04-25T12:14:04;9.10;99.90
59855;DHT22;45732;52.850;6.896;2023-04-25T12:16:40;9.20;99.90
59855;DHT22;45732;52.850;6.896;2023-04-25T12:19:06;9.10;99.90
59855;DHT22;45732;52.850;6.896;2023-04-25T12:21:32;9.00;99.90
59855;DHT22;45732;52.850;6.896;2023-04-25T12:24:13;9.10;99.90
59855;DHT22;45732;52.850;6.896;2023-04-25T12:29:23;9.40;99.90
59855;DHT22;45732;52.850;6.896;2023-04-25T12:31:50;9.20;99.90
59855;DHT22;45732;52.850;6.896;2023-04-25T12:34:17;9.20;99.90
59855;DHT22;45732;52.850;6.896;2023-04-25T12:36:43;9.30;99.90
59855;DHT22;45732;52.850;6.896;2023-04-25T12:39:13;9.50;99.90
59855;DHT22;45732;52.850;6.896;2023-04-25T12:41:41;9.50;99.90
59855;DHT22;45732;52.850;6.896;2023-04-25T12:44:06;9.60;99.90
59855;DHT22;45732;52.850;6.896;2023-04-25T12:46:32;9.30;99.90
59855;DHT22;45732;52.850;6.896;2023-04-25T12:48:58;9.00;99.90
59855;DHT22;45732;52.850;6.896;2023-04-25T12:51:23;8.60;99.90
59855;DHT22;45732;52.850;6.896;2023-04-25T12:53:51;8.50;99.90
59855;DHT22;45732;52.850;6.896;2023-04-25T12:56:17;8.50;99.90
59855;DHT22;45732;52.850;6.896;2023-04-25T12:58:43;8.40;99.90
59855;DHT22;45732;52.850;6.896;2023-04-25T13:01:09;8.40;99.90
59855;DHT22;45732;52.850;6.896;2023-04-25T13:03:35;8.50;99.90
59855;DHT22;45732;52.850;6.896;2023-04-25T13:06:01;8.60;99.90
59855;DHT22;45732;52.850;6.896;2023-04-25T13:08:26;8.80;99.90
59855;DHT22;45732;52.850;6.896;2023-04-25T13:10:52;8.90;99.90
59855;DHT22;45732;52.850;6.896;2023-04-25T13:13:18;8.90;99.90
59855;DHT22;45732;52.850;6.896;2023-04-25T13:15:43;8.80;99.90
59855;DHT22;45732;52.850;6.896;2023-04-25T13:18:10;8.90;99.90
59855;DHT22;45732;52.850;6.896;2023-04-25T13:20:35;9.10;99.90
59855;DHT22;45732;52.850;6.896;2023-04-25T13:23:01;9.20;99.90
59855;DHT22;45732;52.850;6.896;2023-04-25T13:25:27;9.20;99.90
59855;DHT22;45732;52.850;6.896;2023-04-25T13:27:52;9.30;99.90
59855;DHT22;45732;52.850;6.896;2023-04-25T13:30:18;9.50;99.90
59855;DHT22;45732;52.850;6.896;2023-04-25T13:32:44;9.50;99.90
59855;DHT22;45732;52.850;6.896;2023-04-25T13:35:13;9.60;99.90
59855;DHT22;45732;52.850;6.896;2023-04-25T13:37:41;9.70;99.90
59855;DHT22;45732;52.850;6.896;2023-04-25T13:40:09;9.80;99.90
59855;DHT22;45732;52.850;6.896;2023-04-25T13:42:37;9.60;99.90
59855;DHT22;45732;52.850;6.896;2023-04-25T13:45:03;9.50;99.90
59855;DHT22;45732;52.850;6.896;2023-04-25T13:47:29;9.50;99.90
59855;DHT22;45732;52.850;6.896;2023-04-25T13:49:56;9.30;99.90
59855;DHT22;45732;52.850;6.896;2023-04-25T13:52:22;9.40;99.90
59855;DHT22;45732;52.850;6.896;2023-04-25T13:54:49;9.50;99.90
59855;DHT22;45732;52.850;6.896;2023-04-25T13:57:16;9.60;99.90
59855;DHT22;45732;52.850;6.896;2023-04-25T13:59:42;9.60;99.90
59855;DHT22;45732;52.850;6.896;2023-04-25T14:02:08;9.50;99.90
59855;DHT22;45732;52.850;6.896;2023-04-25T14:04:34;9.40;99.90
59855;DHT22;45732;52.850;6.896;2023-04-25T14:07:00;9.20;99.90
59855;DHT22;45732;52.850;6.896;2023-04-25T14:09:27;9.00;99.90
59855;DHT22;45732;52.850;6.896;2023-04-25T14:11:53;8.30;99.90
59855;DHT22;45732;52.850;6.896;2023-04-25T14:14:20;8.20;99.90
59855;DHT22;45732;52.850;6.896;2023-04-25T14:16:47;8.20;99.90
59855;DHT22;45732;52.850;6.896;2023-04-25T14:19:20;8.20;99.90
59855;DHT22;45732;52.850;6.896;2023-04-25T14:21:46;8.30;99.90
59855;DHT22;45732;52.850;6.896;2023-04-25T14:24:13;8.40;99.90
59855;DHT22;45732;52.850;6.896;2023-04-25T14:26:39;8.60;99.90
59855;DHT22;45732;52.850;6.896;2023-04-25T14:29:06;8.70;99.90
59855;DHT22;45732;52.850;6.896;2023-04-25T14:31:37;8.80;99.90
59855;DHT22;45732;52.850;6.896;2023-04-25T14:34:04;8.90;99.90
59855;DHT22;45732;52.850;6.896;2023-04-25T14:36:31;8.90;99.90
59855;DHT22;45732;52.850;6.896;2023-04-25T14:38:57;8.70;99.90
59855;DHT22;45732;52.850;6.896;2023-04-25T14:41:24;8.50;99.90
59855;DHT22;45732;52.850;6.896;2023-04-25T14:43:50;8.20;99.90
59855;DHT22;45732;52.850;6.896;2023-04-25T14:46:16;7.90;99.90
59855;DHT22;45732;52.850;6.896;2023-04-25T14:48:42;7.90;99.90
59855;DHT22;45732;52.850;6.896;2023-04-25T14:51:08;7.80;99.90
59855;DHT22;45732;52.850;6.896;2023-04-25T14:53:34;7.90;99.90
59855;DHT22;45732;52.850;6.896;2023-04-25T14:55:59;8.10;99.90
59855;DHT22;45732;52.850;6.896;2023-04-25T14:58:25;8.40;99.90
59855;DHT22;45732;52.850;6.896;2023-04-25T15:00:51;8.50;99.90
59855;DHT22;45732;52.850;6.896;2023-04-25T15:03:17;8.80;99.90
59855;DHT22;45732;52.850;6.896;2023-04-25T15:05:43;9.00;99.90
59855;DHT22;45732;52.850;6.896;2023-04-25T15:08:09;9.10;99.90
59855;DHT22;45732;52.850;6.896;2023-04-25T15:10:36;9.30;99.90
59855;DHT22;45732;52.850;6.896;2023-04-25T15:13:01;9.60;99.90
59855;DHT22;45732;52.850;6.896;2023-04-25T15:15:28;9.80;99.90
59855;DHT22;45732;52.850;6.896;2023-04-25T15:17:54;10.10;99.90
59855;DHT22;45732;52.850;6.896;2023-04-25T15:20:21;10.30;99.90
59855;DHT22;45732;52.850;6.896;2023-04-25T15:22:47;10.40;99.90
59855;DHT22;45732;52.850;6.896;2023-04-25T15:25:16;10.50;99.90
59855;DHT22;45732;52.850;6.896;2023-04-25T15:27:45;10.40;99.90
59855;DHT22;45732;52.850;6.896;2023-04-25T15:30:15;10.10;99.90
59855;DHT22;45732;52.850;6.896;2023-04-25T15:32:41;9.70;99.90
59855;DHT22;45732;52.850;6.896;2023-04-25T15:35:07;9.50;99.90
59855;DHT22;45732;52.850;6.896;2023-04-25T15:37:34;9.50;99.90
59855;DHT22;45732;52.850;6.896;2023-04-25T15:42:37;10.30;99.90
59855;DHT22;45732;52.850;6.896;2023-04-25T15:45:07;10.60;99.90
59855;DHT22;45732;52.850;6.896;2023-04-25T15:47:34;10.70;99.90
59855;DHT22;45732;52.850;6.896;2023-04-25T15:50:00;11.20;99.90
59855;DHT22;45732;52.850;6.896;2023-04-25T15:52:26;11.40;99.90
59855;DHT22;45732;52.850;6.896;2023-04-25T15:54:52;11.80;99.90
59855;DHT22;45732;52.850;6.896;2023-04-25T15:57:18;12.20;99.90
59855;DHT22;45732;52.850;6.896;2023-04-25T15:59:44;12.00;99.90
59855;DHT22;45732;52.850;6.896;2023-04-25T16:02:09;11.90;99.90